Nearby METAR Reports

 Weather conditions at key Metar weather stations is recorded hourly. Metar weather stations are the stations set up at regional or major airports and often considered the official stations of record for a local area.

KSEA - Seattle/Tacoma Airport
Updated: 01/19/2018 2:53pm
Overcast
Overcast
 Wind from SSE
Wind: SSE 13 mph , 20 km/h
Temperature: 45°F , 7°C
Wind Chill: 39°F , 4°C
Dew Point: 37°F , 3°C
Humidity: 76%
Barometer: 29.88 inHg , 1011.9 hPa
Clouds: Overcast
Visibility: 10 miles , 16 km
Cloud details: Partly cloudy 3000 ft
Mostly cloudy 3400 ft
Overcast 4200 ft
2018/01/19 22:53 KSEA 192253Z 16011KT 10SM SCT030 BKN034 OVC042 07/03 A2988 RMK AO2 RAE19 SLP127 P0000 T00720033
KTIW - Tacoma Narrows Bridge
Updated: 01/19/2018 2:53pm
Overcast
Overcast
 Wind from S
Wind: S 16 mph , 26 km/h, Gust: 28 mph , 44 km/h
Temperature: 46°F , 8°C
Wind Chill: 39°F , 4°C
Dew Point: 37°F , 3°C
Humidity: 71%
Barometer: 29.88 inHg , 1011.9 hPa
Clouds: Overcast
Visibility: 10 miles , 16 km
Cloud details: Overcast 3200 ft
2018/01/19 22:53 KTIW 192253Z 18014G24KT 10SM OVC032 08/03 A2988 RMK AO2 PK WND 18027/2202 SLP121 T00780028
 
KBLI - Bellingham
Updated: 01/19/2018 2:53pm
Overcast
Overcast
 Wind from SSE
Wind: SSE 22 mph , 35 km/h, Gust: 31 mph , 50 km/h
Temperature: 46°F , 8°C
Wind Chill: 38°F , 3°C
Dew Point: 37°F , 3°C
Humidity: 71%
Barometer: 29.80 inHg , 1009.1 hPa
Clouds: Overcast
Visibility: 10 miles , 16 km
Cloud details: Overcast 3000 ft
2018/01/19 22:53 KBLI 192253Z 15019G27KT 10SM OVC030 08/03 A2980 RMK AO2 PK WND 13027/2231 SLP099 T00830028
KUIL - Quillayute-La Push
Updated: 01/19/2018 3:21pm
Light rain, Overcast
Light rain, Overcast
 Wind from SW
Wind: SW 10 mph , 17 km/h
Temperature: 45°F , 7°C
Wind Chill: 40°F , 4°C
Dew Point: 43°F , 6°C
Humidity: 93%
Barometer: 29.79 inHg , 1008.8 hPa
Summary: Light rain
Clouds: Overcast
Visibility: 10 miles , 16 km
Cloud details: Few Clouds 1400 ft
Partly cloudy 2900 ft
Overcast 3700 ft
2018/01/19 23:21 KUIL 192321Z AUTO 22009KT 10SM -RA FEW014 SCT029 OVC037 07/06 A2979 RMK AO2 P0002 T00720061
 
KYKM - Yakima
Updated: 01/19/2018 2:53pm
Clear
Clear
 Wind from SW
Wind: SW 8 mph , 13 km/h
Temperature: 48°F , 9°C
Wind Chill: 44°F , 7°C
Dew Point: 34°F , 1°C
Humidity: 58%
Barometer: 29.89 inHg , 1012.2 hPa
Clouds: Clear
Visibility: 10 miles , 16 km
2018/01/19 22:53 KYKM 192253Z 23007KT 10SM CLR 09/01 A2989 RMK AO2 SLP129 T00940011
KGEG - Spokane
Updated: 01/19/2018 2:53pm
Mostly cloudy
Mostly cloudy
 Wind from SW
Wind: SW 9 mph , 15 km/h
Temperature: 37°F , 3°C
Wind Chill: 30°F , -1°C
Dew Point: 32°F , 0°C
Humidity: 81%
Barometer: 29.89 inHg , 1012.2 hPa
Clouds: Mostly cloudy
Visibility: 10 miles , 16 km
Cloud details: Mostly cloudy 2300 ft
Mostly cloudy 18000 ft
2018/01/19 22:53 KGEG 192253Z 23008KT 10SM BKN023 BKN180 03/00 A2989 RMK AO2 SLP137 T00330000
 
KPDX - Portland
Updated: 01/19/2018 2:53pm
Overcast
Overcast
 Wind from S
Wind: S 16 mph , 26 km/h
Temperature: 48°F , 9°C
Wind Chill: 42°F , 6°C
Dew Point: 39°F , 4°C
Humidity: 71%
Barometer: 30.00 inHg , 1015.9 hPa
Clouds: Overcast
Visibility: 10 miles , 16 km
Cloud details: Partly cloudy 2200 ft
Mostly cloudy 3300 ft
Mostly cloudy 10000 ft
Overcast 26000 ft
2018/01/19 22:53 KPDX 192253Z 19014KT 10SM SCT022 BKN033 BKN100 OVC260 09/04 A3000 RMK AO2 SLP158 T00940044